Malvern, Arkansas
Current Conditions -  °F | °C
As of 12:53 AM on Monday 24 Nov 2014 (Local Time) from KHOT Reporting Station
Overcast Overcast  
Wind Chill: 52°   Ceiling: 2400
Heat Index: 52°   Visibility: 10mi
Dew Point: 43°   Wind: 15mph
Humidity: 71%   Direction: 300°WNW
Pressure: 29.57"   Gusts: 28mph
Location:  34.36°N, 92.81°W
Report Text: KHOT 240653Z AUTO 30013G24KT 10SM OVC024 11/06 A2957 RMK AO2 SLP010 T01110061
Loading
Personal Weather Stations






























Interactive Weather Map New forecast layout! Learn more

10-Day Weather Forecast

Advertisements
Track Severe Weather on mobile